Time;durP1;ratioP1;P1;durP2;ratioP2;P2;SDS_P1;SDS_P2;PMS_P1;PMS_P2;Temp;Humidity;BMP_temperature;BMP_pressure;BME280_temperature;BME280_humidity;BME280_pressure;Samples;Min_cycle;Max_cycle;Signal;HPM_P1;HPM_P2
2021/01/11 00:00:55;;;;;;;8.48;2.05;;;-1.00;97.10;;;;;;4148484;28;20065;-86
2021/01/11 00:02:56;;;;;;;0.40;0.40;;;-1.00;97.10;;;;;;4149962;28;20096;-87
2021/01/11 00:04:57;;;;;;;2.40;2.30;;;-1.00;97.10;;;;;;4148907;28;20046;-86
2021/01/11 00:06:58;;;;;;;1.75;1.65;;;-1.10;97.30;;;;;;4148078;28;20417;-86
2021/01/11 00:09:00;;;;;;;2.10;2.00;;;-1.10;97.20;;;;;;4148499;28;20540;-86
2021/01/11 00:11:01;;;;;;;3.35;2.13;;;-1.10;97.10;;;;;;4157689;28;20049;-86
2021/01/11 00:13:02;;;;;;;2.13;1.60;;;-1.10;97.20;;;;;;4164249;28;20055;-87
2021/01/11 00:15:06;;;;;;;1.27;0.82;;;-1.10;97.10;;;;;;4170849;28;20114;-86
2021/01/11 00:17:07;;;;;;;5.35;2.85;;;-1.10;97.10;;;;;;4150427;28;20081;-86
2021/01/11 00:19:09;;;;;;;1.00;1.00;;;-1.10;97.10;;;;;;4148544;28;20489;-87
2021/01/11 00:21:14;;;;;;;1.40;1.33;;;-1.10;97.20;;;;;;4164189;28;20046;-86
2021/01/11 00:23:15;;;;;;;1.67;1.58;;;-1.10;97.20;;;;;;4148468;28;20072;-87
2021/01/11 00:25:17;;;;;;;2.00;1.88;;;-1.10;97.30;;;;;;4165024;28;20111;-87
2021/01/11 00:27:18;;;;;;;2.30;2.10;;;-1.20;97.30;;;;;;4147579;28;20057;-86
2021/01/11 00:29:20;;;;;;;0.93;0.93;;;-1.20;97.30;;;;;;4166029;28;20113;-86
2021/01/11 00:31:22;;;;;;;0.75;0.75;;;-1.20;97.20;;;;;;4148982;28;20056;-87
2021/01/11 00:33:23;;;;;;;3.50;2.33;;;-1.20;97.20;;;;;;4147728;28;20066;-87
2021/01/11 00:35:25;;;;;;;0.88;0.88;;;-1.20;97.10;;;;;;4164822;28;20050;-87
2021/01/11 00:37:26;;;;;;;2.03;1.92;;;-1.20;97.20;;;;;;4148490;28;20063;-87
2021/01/11 00:39:28;;;;;;;1.02;1.02;;;-1.20;97.20;;;;;;4147563;28;20048;-87
2021/01/11 00:41:29;;;;;;;2.53;1.50;;;-1.20;97.10;;;;;;4153956;28;20054;-87
2021/01/11 00:43:30;;;;;;;2.10;2.00;;;-1.20;97.10;;;;;;4149954;28;20046;-87
2021/01/11 00:45:31;;;;;;;1.80;1.70;;;-1.20;97.10;;;;;;4163435;28;20042;-87
2021/01/11 00:47:39;;;;;;;3.42;3.13;;;-1.10;96.90;;;;;;4164666;28;20064;-87
2021/01/11 00:49:41;;;;;;;1.25;1.17;;;-1.10;97.00;;;;;;4149994;28;20105;-87
2021/01/11 00:51:42;;;;;;;1.35;1.05;;;-1.10;96.90;;;;;;4147507;28;20041;-86
2021/01/11 00:53:46;;;;;;;2.25;1.70;;;-1.10;96.90;;;;;;4148007;28;20140;-87
2021/01/11 00:55:48;;;;;;;1.15;1.05;;;-1.10;96.90;;;;;;4148638;28;20888;-87
2021/01/11 00:57:49;;;;;;;1.50;1.33;;;-1.10;96.90;;;;;;4147600;28;20430;-86
2021/01/11 00:59:50;;;;;;;0.70;0.70;;;-1.00;96.80;;;;;;4145957;28;20084;-87
2021/01/11 01:01:52;;;;;;;0.95;0.95;;;-1.10;96.80;;;;;;4166231;28;20124;-87
2021/01/11 01:03:53;;;;;;;0.80;0.80;;;-1.00;96.80;;;;;;4147604;28;20593;-87
2021/01/11 01:05:55;;;;;;;0.32;0.32;;;-1.00;97.00;;;;;;4149149;28;20133;-87
2021/01/11 01:07:56;;;;;;;1.13;1.13;;;-1.00;96.70;;;;;;4149830;28;20058;-87
2021/01/11 01:09:57;;;;;;;1.85;1.40;;;-1.00;96.80;;;;;;4147320;28;20430;-86
2021/01/11 01:11:59;;;;;;;0.65;0.65;;;-1.00;96.70;;;;;;4163209;28;20076;-87
2021/01/11 01:14:00;;;;;;;1.40;0.60;;;-0.90;96.60;;;;;;4164088;28;20049;-87
2021/01/11 01:16:02;;;;;;;0.75;0.75;;;-0.90;96.70;;;;;;4146765;28;20090;-86
2021/01/11 01:18:04;;;;;;;1.63;1.52;;;-0.90;96.50;;;;;;4150728;28;20100;-86
2021/01/11 01:20:07;;;;;;;1.85;1.75;;;-0.90;96.50;;;;;;4148073;28;20486;-87
2021/01/11 01:22:08;;;;;;;1.30;1.25;;;-0.90;96.50;;;;;;4163765;28;20052;-86
2021/01/11 01:24:09;;;;;;;0.88;0.77;;;-0.90;96.70;;;;;;4163624;28;20053;-86
2021/01/11 01:26:11;;;;;;;1.33;1.33;;;-0.90;96.60;;;;;;4149259;28;20413;-87
2021/01/11 01:28:12;;;;;;;1.05;1.00;;;-0.90;96.70;;;;;;4148483;28;20483;-87
2021/01/11 01:30:13;;;;;;;1.63;0.77;;;-0.90;97.00;;;;;;4161315;28;20050;-86
2021/01/11 01:32:15;;;;;;;1.98;1.88;;;-0.90;96.60;;;;;;4144539;28;20108;-87
2021/01/11 01:34:16;;;;;;;2.17;2.05;;;-0.90;96.60;;;;;;4164290;28;20173;-87
2021/01/11 01:36:18;;;;;;;6.20;1.42;;;-0.90;96.60;;;;;;4148571;28;20046;-86
2021/01/11 01:38:20;;;;;;;1.33;1.27;;;-0.90;96.50;;;;;;4163940;28;20053;-86
2021/01/11 01:40:21;;;;;;;2.40;2.20;;;-0.90;96.40;;;;;;4147767;28;20038;-87
2021/01/11 01:42:22;;;;;;;1.52;1.40;;;-0.90;96.30;;;;;;4163053;28;20498;-87
2021/01/11 01:44:23;;;;;;;1.80;1.70;;;-0.90;96.40;;;;;;4147677;28;20136;-87
2021/01/11 01:46:25;;;;;;;1.85;1.73;;;-0.90;96.50;;;;;;4148311;28;20046;-87
2021/01/11 01:48:26;;;;;;;1.83;0.95;;;-0.90;96.40;;;;;;4163738;28;20115;-87
2021/01/11 01:50:27;;;;;;;0.57;0.57;;;-0.90;96.50;;;;;;4147877;28;20514;-87
2021/01/11 01:52:29;;;;;;;17.27;1.38;;;-0.90;96.40;;;;;;4165647;28;20128;-87
2021/01/11 01:54:31;;;;;;;0.73;0.73;;;-0.90;96.60;;;;;;4147194;28;20049;-86
2021/01/11 01:56:32;;;;;;;2.10;1.13;;;-0.90;96.30;;;;;;4147484;28;20057;-86
2021/01/11 01:58:34;;;;;;;2.60;2.22;;;-0.90;96.30;;;;;;4164066;28;20051;-87
2021/01/11 02:00:36;;;;;;;1.65;1.55;;;-0.90;96.40;;;;;;4147408;28;20091;-87
2021/01/11 02:02:38;;;;;;;0.73;0.73;;;-0.90;96.50;;;;;;4163496;28;20077;-86
2021/01/11 02:04:39;;;;;;;1.52;1.42;;;-0.90;96.30;;;;;;4149173;28;20042;-86
2021/01/11 02:06:40;;;;;;;1.85;1.75;;;-0.90;96.40;;;;;;4150199;28;20417;-87
2021/01/11 02:09:00;;;;;;;1.13;1.13;;;-0.90;96.50;;;;;;4173615;28;20517;-87
2021/01/11 02:11:14;;;;;;;2.30;1.67;;;-0.90;96.30;;;;;;4152610;28;20048;-87
2021/01/11 02:13:30;;;;;;;1.25;1.17;;;-0.90;96.40;;;;;;4166335;28;20468;-87
2021/01/11 02:15:52;;;;;;;2.33;1.45;;;-0.80;96.30;;;;;;4178825;28;20461;-86
2021/01/11 02:17:59;;;;;;;1.90;1.20;;;-0.80;96.20;;;;;;4185432;28;20156;-87
2021/01/11 02:20:38;;;;;;;1.30;1.30;;;-0.80;96.10;;;;;;4153475;28;20057;-87
2021/01/11 02:22:51;;;;;;;1.17;1.17;;;-0.80;96.20;;;;;;4169649;28;20084;-86
2021/01/11 02:25:07;;;;;;;0.75;0.75;;;-0.80;96.20;;;;;;4182371;28;20127;-87
2021/01/11 02:27:45;;;;;;;1.23;1.13;;;-0.90;96.10;;;;;;4167503;28;20048;-86
2021/01/11 02:30:07;;;;;;;0.43;0.43;;;-0.90;96.10;;;;;;4168219;28;20104;-86
2021/01/11 02:32:08;;;;;;;0.95;0.95;;;-0.90;96.30;;;;;;4183397;28;20041;-86
2021/01/11 02:34:09;;;;;;;0.52;0.52;;;-0.90;96.30;;;;;;4166291;28;20092;-87
2021/01/11 02:36:11;;;;;;;0.70;0.70;;;-0.90;96.30;;;;;;4168025;28;20454;-87
2021/01/11 02:38:12;;;;;;;2.83;2.42;;;-0.90;96.30;;;;;;4165839;28;20061;-86
2021/01/11 02:40:14;;;;;;;1.10;1.00;;;-0.90;96.00;;;;;;4166061;28;20077;-86
2021/01/11 02:42:15;;;;;;;3.22;2.38;;;-0.90;96.20;;;;;;4167420;28;20521;-87
2021/01/11 02:44:16;;;;;;;0.90;0.90;;;-0.90;96.20;;;;;;4149163;28;20486;-87
2021/01/11 02:46:17;;;;;;;1.70;1.05;;;-0.90;96.40;;;;;;4150056;28;20072;-87
2021/01/11 02:48:19;;;;;;;0.75;0.75;;;-0.90;96.20;;;;;;4148888;28;20049;-85
2021/01/11 02:50:23;;;;;;;1.77;1.67;;;-0.90;96.20;;;;;;4190853;28;22008;-87
2021/01/11 02:52:41;;;;;;;1.30;1.00;;;-0.90;96.30;;;;;;4150017;28;20133;-87
2021/01/11 02:54:49;;;;;;;1.17;1.05;;;-0.90;96.30;;;;;;4163141;28;20312;-87
2021/01/11 02:57:17;;;;;;;0.70;0.70;;;-0.90;96.20;;;;;;4182908;28;20053;-87
2021/01/11 02:59:33;;;;;;;0.77;0.77;;;-0.90;96.30;;;;;;4145858;28;20062;-86
2021/01/11 03:01:41;;;;;;;1.48;1.38;;;-0.90;96.00;;;;;;4134982;28;20510;-87
2021/01/11 03:03:43;;;;;;;0.68;0.68;;;-0.90;96.10;;;;;;4100603;28;20106;-86
2021/01/11 03:05:45;;;;;;;5.15;1.52;;;-0.90;96.10;;;;;;4143199;28;20399;-86
2021/01/11 03:07:56;;;;;;;1.27;1.17;;;-0.90;96.20;;;;;;4146620;28;20522;-87
2021/01/11 03:09:57;;;;;;;2.95;1.67;;;-0.90;96.20;;;;;;4130953;28;20046;-85
2021/01/11 03:11:59;;;;;;;1.63;1.02;;;-0.90;95.80;;;;;;4150533;28;20045;-87
2021/01/11 03:14:00;;;;;;;3.10;1.45;;;-0.80;95.80;;;;;;4128580;28;20053;-86
2021/01/11 03:16:01;;;;;;;0.60;0.60;;;-0.90;95.80;;;;;;4115423;28;20485;-87
2021/01/11 03:18:03;;;;;;;1.35;1.30;;;-0.90;95.90;;;;;;4159618;28;20464;-87
2021/01/11 03:20:05;;;;;;;2.38;2.17;;;-0.90;95.90;;;;;;4133701;28;20038;-87
2021/01/11 03:22:06;;;;;;;1.08;1.08;;;-0.90;95.90;;;;;;4147930;28;20053;-86
2021/01/11 03:24:08;;;;;;;2.20;1.17;;;-0.90;95.80;;;;;;4132687;28;20077;-87
2021/01/11 03:26:09;;;;;;;1.73;1.63;;;-0.90;95.70;;;;;;4130797;28;20057;-87
2021/01/11 03:28:10;;;;;;;0.93;0.93;;;-0.90;95.60;;;;;;4117214;28;20051;-87
2021/01/11 03:30:12;;;;;;;1.95;1.83;;;-0.90;95.70;;;;;;4154370;28;20566;-87
2021/01/11 03:32:14;;;;;;;2.05;1.85;;;-1.00;95.80;;;;;;4125014;28;20490;-87
2021/01/11 03:34:15;;;;;;;1.55;0.82;;;-0.90;95.80;;;;;;4116560;28;20715;-87
2021/01/11 03:36:16;;;;;;;1.33;1.27;;;-0.90;95.90;;;;;;4147840;28;20061;-86
2021/01/11 03:38:18;;;;;;;1.83;1.73;;;-0.90;95.80;;;;;;4158783;28;20608;-86
2021/01/11 03:40:19;;;;;;;1.65;1.55;;;-0.90;95.70;;;;;;4165890;28;20515;-87
2021/01/11 03:42:20;;;;;;;2.22;2.13;;;-0.90;95.90;;;;;;4139178;28;20050;-87
2021/01/11 03:44:22;;;;;;;0.77;0.77;;;-0.90;95.90;;;;;;4160119;28;20533;-87
2021/01/11 03:46:24;;;;;;;1.88;1.77;;;-0.90;95.80;;;;;;4182834;28;20134;-87
2021/01/11 03:48:25;;;;;;;1.60;1.52;;;-0.90;95.80;;;;;;4165400;28;20053;-87
2021/01/11 03:50:26;;;;;;;3.40;1.65;;;-0.90;95.80;;;;;;4148853;28;20050;-86
2021/01/11 03:52:29;;;;;;;2.42;1.17;;;-0.90;95.70;;;;;;4150473;28;20042;-87
2021/01/11 03:54:30;;;;;;;0.95;0.95;;;-0.90;95.70;;;;;;4145054;28;20471;-87
2021/01/11 03:56:32;;;;;;;0.75;0.75;;;-0.80;95.70;;;;;;4149938;28;20065;-87
2021/01/11 03:58:33;;;;;;;1.25;1.25;;;-0.80;95.70;;;;;;4151434;28;20053;-86
2021/01/11 04:00:35;;;;;;;1.55;1.45;;;-0.90;95.70;;;;;;4165668;28;20053;-87
2021/01/11 04:02:36;;;;;;;1.13;1.13;;;-0.90;95.70;;;;;;4150056;28;20080;-86
2021/01/11 04:04:38;;;;;;;1.17;1.13;;;-0.90;95.60;;;;;;4150163;28;20061;-87
2021/01/11 04:06:39;;;;;;;4.15;1.77;;;-0.90;95.80;;;;;;4148880;28;20053;-87
2021/01/11 04:08:40;;;;;;;1.35;1.25;;;-0.90;95.60;;;;;;4155969;28;20042;-87
2021/01/11 04:10:42;;;;;;;0.90;0.90;;;-0.90;95.60;;;;;;4137354;28;20050;-87
2021/01/11 04:12:43;;;;;;;0.95;0.95;;;-0.90;95.50;;;;;;4145565;28;20073;-87
2021/01/11 04:14:44;;;;;;;0.90;0.90;;;-0.90;95.60;;;;;;4147568;28;20153;-86
2021/01/11 04:16:46;;;;;;;0.57;0.57;;;-0.90;95.70;;;;;;4148530;28;20045;-87
2021/01/11 04:18:49;;;;;;;1.45;1.27;;;-0.90;95.50;;;;;;4164404;28;20088;-87
2021/01/11 04:20:51;;;;;;;1.08;1.08;;;-0.90;95.30;;;;;;4149300;28;20483;-87
2021/01/11 04:22:52;;;;;;;2.53;2.22;;;-0.90;95.50;;;;;;4148718;28;20052;-87
2021/01/11 04:24:53;;;;;;;1.17;1.08;;;-0.90;95.60;;;;;;4147801;28;20087;-87
2021/01/11 04:26:54;;;;;;;2.47;1.45;;;-0.90;95.20;;;;;;4149798;28;20064;-86
2021/01/11 04:28:56;;;;;;;2.97;2.67;;;-0.90;94.90;;;;;;4166442;28;20053;-87
2021/01/11 04:30:57;;;;;;;0.80;0.80;;;-0.90;95.00;;;;;;4147916;28;20088;-86
2021/01/11 04:32:59;;;;;;;1.42;1.17;;;-0.90;95.10;;;;;;4149650;28;20049;-87
2021/01/11 04:35:01;;;;;;;2.75;1.58;;;-0.90;95.10;;;;;;4164328;28;20133;-87
2021/01/11 04:37:03;;;;;;;3.13;1.50;;;-1.00;95.00;;;;;;4164543;28;20056;-87
2021/01/11 04:39:04;;;;;;;2.88;1.35;;;-1.00;95.00;;;;;;4148923;28;20471;-87
2021/01/11 04:41:05;;;;;;;0.98;0.98;;;-1.00;95.20;;;;;;4147160;28;20046;-87
2021/01/11 04:43:16;;;;;;;0.82;0.82;;;-1.00;95.00;;;;;;4147470;28;20144;-87
2021/01/11 04:45:18;;;;;;;1.58;1.48;;;-1.00;95.00;;;;;;4163781;28;20136;-86
2021/01/11 04:47:20;;;;;;;1.58;1.45;;;-1.00;95.10;;;;;;4151120;28;20049;-86
2021/01/11 04:49:21;;;;;;;1.13;1.02;;;-1.00;95.00;;;;;;4148314;28;20049;-87
2021/01/11 04:51:22;;;;;;;1.00;1.00;;;-1.00;94.90;;;;;;4148597;28;20581;-87
2021/01/11 04:53:23;;;;;;;3.45;2.63;;;-1.00;95.00;;;;;;4160739;28;20041;-87
2021/01/11 04:55:25;;;;;;;3.95;2.35;;;-1.00;94.80;;;;;;4148261;28;20064;-87
2021/01/11 04:57:26;;;;;;;4.35;1.77;;;-1.10;94.90;;;;;;4163800;28;20051;-87
2021/01/11 04:59:28;;;;;;;4.57;1.90;;;-1.10;94.80;;;;;;4170099;28;20056;-87
2021/01/11 05:01:29;;;;;;;0.90;0.90;;;-1.00;94.90;;;;;;4164733;28;20052;-87
2021/01/11 05:03:31;;;;;;;1.20;1.08;;;-1.10;94.90;;;;;;4163102;28;20060;-87
2021/01/11 05:05:37;;;;;;;2.13;1.98;;;-1.00;94.80;;;;;;4146661;28;20112;-87
2021/01/11 05:07:39;;;;;;;2.25;1.85;;;-1.00;94.80;;;;;;4168118;28;20059;-87
2021/01/11 05:09:43;;;;;;;3.15;2.85;;;-1.00;94.80;;;;;;4180492;28;20070;-87
2021/01/11 05:11:44;;;;;;;1.67;1.58;;;-1.00;94.80;;;;;;4149515;28;20050;-86
2021/01/11 05:13:49;;;;;;;2.80;2.13;;;-1.10;94.70;;;;;;4149312;28;20128;-87
2021/01/11 05:15:50;;;;;;;2.45;2.33;;;-1.10;95.00;;;;;;4163666;28;20057;-87
2021/01/11 05:17:52;;;;;;;3.00;2.80;;;-1.10;94.60;;;;;;4148527;28;20129;-86
2021/01/11 05:19:55;;;;;;;1.52;1.42;;;-1.10;94.80;;;;;;4149629;28;20052;-86
2021/01/11 05:21:56;;;;;;;0.65;0.65;;;-1.00;94.80;;;;;;4163695;28;20133;-86
2021/01/11 05:23:57;;;;;;;1.92;1.83;;;-1.10;94.70;;;;;;4165149;28;20045;-86
2021/01/11 05:25:58;;;;;;;0.95;0.95;;;-1.10;94.70;;;;;;4148115;28;20053;-86
2021/01/11 05:28:08;;;;;;;1.20;0.82;;;-1.10;94.80;;;;;;4147577;28;20050;-87
2021/01/11 05:30:31;;;;;;;0.88;0.88;;;-1.10;94.60;;;;;;4165498;28;20080;-86
2021/01/11 05:32:32;;;;;;;1.63;1.52;;;-1.10;94.20;;;;;;4167778;28;20048;-86
2021/01/11 05:34:49;;;;;;;1.88;1.65;;;-1.10;94.40;;;;;;4164131;28;20048;-87
2021/01/11 05:36:50;;;;;;;2.60;1.40;;;-1.00;94.60;;;;;;4179989;28;20052;-86
2021/01/11 05:38:52;;;;;;;1.83;1.73;;;-1.00;94.70;;;;;;4147594;28;20046;-86
2021/01/11 05:40:53;;;;;;;1.30;1.20;;;-1.00;94.40;;;;;;4153746;28;20046;-86
2021/01/11 05:42:58;;;;;;;2.38;1.73;;;-1.10;94.40;;;;;;4166482;28;20049;-87
2021/01/11 05:45:13;;;;;;;1.30;1.30;;;-1.10;94.50;;;;;;4166575;28;20128;-86
2021/01/11 05:47:14;;;;;;;4.03;2.38;;;-1.00;94.10;;;;;;4162870;28;20053;-87
2021/01/11 05:49:15;;;;;;;1.80;1.70;;;-1.10;94.30;;;;;;4166905;28;20141;-87
2021/01/11 05:51:23;;;;;;;1.70;1.40;;;-1.10;94.10;;;;;;4150164;28;20481;-86
2021/01/11 05:53:25;;;;;;;1.38;1.27;;;-1.10;93.70;;;;;;4151723;28;20049;-86
2021/01/11 05:55:28;;;;;;;1.42;1.33;;;-1.10;94.00;;;;;;4168109;28;20069;-86
2021/01/11 05:57:29;;;;;;;4.53;3.05;;;-1.10;94.10;;;;;;4146559;28;20050;-87
2021/01/11 05:59:31;;;;;;;1.67;1.55;;;-1.10;93.90;;;;;;4152232;28;20132;-87
2021/01/11 06:01:33;;;;;;;5.03;2.00;;;-1.10;93.80;;;;;;4152376;28;20054;-86
2021/01/11 06:03:38;;;;;;;1.63;1.52;;;-1.10;93.80;;;;;;4150498;28;20054;-86
2021/01/11 06:05:40;;;;;;;3.38;1.88;;;-1.10;93.80;;;;;;4152108;28;20046;-86
2021/01/11 06:07:43;;;;;;;1.00;1.00;;;-1.20;93.70;;;;;;4166766;28;20140;-87
2021/01/11 06:09:44;;;;;;;1.23;1.23;;;-1.10;93.60;;;;;;4149841;28;20129;-86
2021/01/11 06:11:46;;;;;;;2.72;2.53;;;-1.10;93.80;;;;;;4173601;28;20577;-86
2021/01/11 06:13:48;;;;;;;2.60;2.40;;;-1.20;93.50;;;;;;4150627;28;20046;-87
2021/01/11 06:15:50;;;;;;;1.63;1.55;;;-1.20;93.80;;;;;;4149675;28;20050;-86
2021/01/11 06:18:12;;;;;;;2.17;1.98;;;-1.10;93.80;;;;;;4183850;28;20139;-86
2021/01/11 06:20:23;;;;;;;1.75;1.58;;;-1.10;93.70;;;;;;4152151;28;20049;-86
2021/01/11 06:22:44;;;;;;;1.25;1.15;;;-1.00;93.80;;;;;;4150461;28;20471;-87
2021/01/11 06:24:46;;;;;;;1.67;1.58;;;-1.10;93.70;;;;;;4182363;28;20053;-87
2021/01/11 06:26:47;;;;;;;1.15;0.70;;;-1.10;93.80;;;;;;4166370;28;20433;-87
2021/01/11 06:28:48;;;;;;;1.88;1.75;;;-1.10;93.60;;;;;;4152257;28;20054;-87
2021/01/11 06:30:50;;;;;;;0.90;0.90;;;-1.20;93.70;;;;;;4165859;28;20049;-86
2021/01/11 06:32:51;;;;;;;2.53;2.30;;;-1.20;93.60;;;;;;4168018;28;20047;-87
2021/01/11 06:34:53;;;;;;;3.15;2.97;;;-1.20;93.50;;;;;;4152476;28;20520;-87
2021/01/11 06:36:54;;;;;;;5.25;3.38;;;-1.10;93.60;;;;;;4149160;28;20050;-87
2021/01/11 06:38:56;;;;;;;1.42;1.33;;;-1.20;93.60;;;;;;4150402;28;20084;-87
2021/01/11 06:41:03;;;;;;;3.05;0.93;;;-1.10;93.90;;;;;;4137980;28;20050;-87
2021/01/11 06:43:05;;;;;;;2.15;1.80;;;-1.20;93.80;;;;;;4166802;28;20522;-88
2021/01/11 06:45:07;;;;;;;1.25;1.25;;;-1.20;94.00;;;;;;4149452;28;20046;-87
2021/01/11 06:47:11;;;;;;;1.58;1.48;;;-1.20;93.90;;;;;;4162157;28;20060;-87
2021/01/11 06:49:26;;;;;;;1.70;1.60;;;-1.20;93.80;;;;;;4141097;28;20053;-87
2021/01/11 06:51:32;;;;;;;1.40;1.38;;;-1.20;93.90;;;;;;4160697;28;20489;-87
2021/01/11 06:53:34;;;;;;;2.40;2.28;;;-1.20;93.90;;;;;;4149880;28;20049;-86
2021/01/11 06:55:35;;;;;;;1.15;1.15;;;-1.20;94.10;;;;;;4166380;28;20046;-86
2021/01/11 06:57:36;;;;;;;4.60;2.00;;;-1.20;93.90;;;;;;4149506;28;20050;-84
2021/01/11 06:59:37;;;;;;;2.83;1.95;;;-1.20;93.90;;;;;;4180402;28;20079;-86
2021/01/11 07:01:40;;;;;;;3.70;2.10;;;-1.20;93.80;;;;;;4174259;28;20041;-88
2021/01/11 07:03:42;;;;;;;1.17;1.13;;;-1.30;93.70;;;;;;4151629;28;20081;-87
2021/01/11 07:05:47;;;;;;;2.58;1.58;;;-1.20;94.00;;;;;;4179597;28;20422;-87
2021/01/11 07:07:48;;;;;;;2.40;2.30;;;-1.20;94.00;;;;;;4164049;28;20577;-87
2021/01/11 07:09:57;;;;;;;3.20;3.00;;;-1.20;94.00;;;;;;4165317;28;20045;-89
2021/01/11 07:12:07;;;;;;;0.93;0.93;;;-1.20;93.70;;;;;;4152595;28;20085;-88
2021/01/11 07:14:12;;;;;;;0.80;0.80;;;-1.20;94.00;;;;;;4183300;28;20045;-88
2021/01/11 07:16:13;;;;;;;;;;;-1.20;93.90;;;;;;4150773;28;20050;-87
2021/01/11 07:18:37;;;;;;;1.23;1.13;;;-1.20;93.80;;;;;;4182533;28;19921;-84
2021/01/11 07:20:51;;;;;;;0.68;0.68;;;-1.20;93.60;;;;;;4183674;28;20045;-85
2021/01/11 07:22:53;;;;;;;2.25;2.15;;;-1.20;93.60;;;;;;4183805;28;20059;-86
2021/01/11 07:24:54;;;;;;;3.13;2.92;;;-1.30;93.60;;;;;;4181988;28;20047;-86
2021/01/11 07:26:55;;;;;;;1.98;1.88;;;-1.30;93.70;;;;;;4182452;28;20049;-85
2021/01/11 07:29:05;;;;;;;1.50;1.40;;;-1.40;93.70;;;;;;4183606;28;20100;-85
2021/01/11 07:31:06;;;;;;;1.42;1.33;;;-1.40;93.60;;;;;;4167204;28;20481;-87
2021/01/11 07:33:10;;;;;;;2.15;1.50;;;-1.40;93.60;;;;;;4181934;28;20045;-86
2021/01/11 07:35:12;;;;;;;1.58;1.48;;;-1.40;93.60;;;;;;4182645;28;20057;-86
2021/01/11 07:37:13;;;;;;;2.63;2.33;;;-1.50;93.70;;;;;;4182390;28;20056;-87
2021/01/11 07:39:18;;;;;;;2.75;2.45;;;-1.50;93.70;;;;;;4164554;28;20164;-86
2021/01/11 07:41:26;;;;;;;1.38;1.33;;;-1.60;93.80;;;;;;4182017;28;20059;-87
2021/01/11 07:43:28;;;;;;;1.45;1.40;;;-1.60;94.00;;;;;;4176487;28;20048;-87
2021/01/11 07:45:29;;;;;;;0.77;0.77;;;-1.60;94.10;;;;;;4152383;28;20056;-87
2021/01/11 07:47:31;;;;;;;1.38;1.27;;;-1.50;94.10;;;;;;4162130;28;20049;-86
2021/01/11 07:49:35;;;;;;;1.70;1.60;;;-1.50;94.20;;;;;;4181986;28;20040;-87
2021/01/11 07:51:37;;;;;;;0.95;0.95;;;-1.50;94.20;;;;;;4162811;28;20061;-85
2021/01/11 07:53:38;;;;;;;1.58;1.42;;;-1.50;94.10;;;;;;4162434;28;20056;-86
2021/01/11 07:55:40;;;;;;;2.28;2.17;;;-1.60;94.40;;;;;;4165292;28;20047;-85
2021/01/11 07:57:41;;;;;;;1.48;1.38;;;-1.60;94.30;;;;;;4181037;28;20447;-86
2021/01/11 07:59:42;;;;;;;0.88;0.88;;;-1.60;94.30;;;;;;4165357;28;20069;-86
2021/01/11 08:01:45;;;;;;;1.48;1.38;;;-1.60;94.20;;;;;;4182838;28;20424;-86
2021/01/11 08:03:47;;;;;;;1.25;1.25;;;-1.60;94.40;;;;;;4181104;28;20094;-85
2021/01/11 08:05:48;;;;;;;1.05;1.05;;;-1.60;94.40;;;;;;4165523;28;20045;-85
2021/01/11 08:07:50;;;;;;;1.67;1.58;;;-1.60;94.50;;;;;;4166689;28;20482;-84
2021/01/11 08:09:51;;;;;;;2.55;2.42;;;-1.60;94.60;;;;;;4181017;28;20509;-84
2021/01/11 08:12:15;;;;;;;2.33;2.22;;;-1.60;94.20;;;;;;4181868;28;20045;-85
2021/01/11 08:14:16;;;;;;;1.77;1.67;;;-1.60;94.40;;;;;;4183455;28;20056;-85
2021/01/11 08:16:18;;;;;;;1.23;1.20;;;-1.60;94.50;;;;;;4166086;28;20049;-88
2021/01/11 08:18:21;;;;;;;1.13;1.13;;;-1.60;94.10;;;;;;4165996;28;20061;-86
2021/01/11 08:20:23;;;;;;;1.77;1.67;;;-1.60;94.10;;;;;;4181747;28;20041;-85
2021/01/11 08:22:27;;;;;;;1.73;1.63;;;-1.60;94.30;;;;;;4165531;28;20052;-84
2021/01/11 08:24:29;;;;;;;1.35;1.30;;;-1.60;94.60;;;;;;4177724;28;20087;-84
2021/01/11 08:26:32;;;;;;;4.28;1.63;;;-1.60;94.30;;;;;;4164694;28;20418;-83
2021/01/11 08:28:33;;;;;;;1.23;1.20;;;-1.60;94.50;;;;;;4149262;28;20053;-83
2021/01/11 08:30:34;;;;;;;2.33;2.13;;;-1.60;94.40;;;;;;4159118;28;20052;-85
2021/01/11 08:32:35;;;;;;;2.08;1.98;;;-1.60;94.30;;;;;;4168773;28;20488;-83
2021/01/11 08:34:38;;;;;;;0.88;0.68;;;-1.60;94.20;;;;;;4154142;28;20297;-84
2021/01/11 08:36:39;;;;;;;2.63;1.60;;;-1.60;94.20;;;;;;4177184;28;20060;-84
2021/01/11 08:39:00;;;;;;;3.10;1.77;;;-1.60;94.20;;;;;;4182598;28;20049;-86
2021/01/11 08:41:09;;;;;;;1.00;1.00;;;-1.60;93.90;;;;;;4166191;28;20517;-85
2021/01/11 08:43:19;;;;;;;2.53;2.35;;;-1.60;94.00;;;;;;4148058;28;20077;-86
2021/01/11 08:45:34;;;;;;;2.83;2.58;;;-1.60;94.10;;;;;;4146035;28;20087;-86
2021/01/11 08:47:37;;;;;;;1.40;1.38;;;-1.60;94.00;;;;;;4182965;28;20041;-85
2021/01/11 08:49:55;;;;;;;4.22;2.33;;;-1.60;94.20;;;;;;4145493;28;20168;-84
2021/01/11 08:52:10;;;;;;;1.55;1.35;;;-1.60;94.10;;;;;;4166878;28;20132;-86
2021/01/11 08:54:24;;;;;;;3.72;2.58;;;-1.60;94.40;;;;;;4174590;28;20137;-85
2021/01/11 08:56:28;;;;;;;5.70;2.20;;;-1.70;94.30;;;;;;4175677;28;20040;-83
2021/01/11 08:58:32;;;;;;;0.80;0.80;;;-1.70;94.30;;;;;;4174993;28;20416;-82
2021/01/11 09:00:34;;;;;;;;;;;-1.60;94.30;;;;;;4185291;28;20093;-81
2021/01/11 09:02:35;;;;;;;1.20;1.20;;;-1.70;93.90;;;;;;4187379;28;20081;-84
2021/01/11 09:04:37;;;;;;;5.20;3.17;;;-1.70;94.10;;;;;;4164710;28;20497;-88
2021/01/11 09:06:43;;;;;;;2.42;2.22;;;-1.70;94.20;;;;;;4180204;28;20060;-87
2021/01/11 09:08:44;;;;;;;5.03;1.80;;;-1.60;94.60;;;;;;4183982;28;20106;-83
2021/01/11 09:10:46;;;;;;;1.98;1.67;;;-1.60;94.00;;;;;;4164795;28;20040;-85
2021/01/11 09:12:47;;;;;;;5.65;2.58;;;-1.60;93.70;;;;;;4178456;28;20076;-85
2021/01/11 09:14:52;;;;;;;3.28;1.73;;;-1.70;93.70;;;;;;4148083;28;20366;-85
2021/01/11 09:17:02;;;;;;;2.38;2.28;;;-1.60;93.60;;;;;;4164303;28;20187;-85
2021/01/11 09:19:08;;;;;;;1.67;1.58;;;-1.60;93.80;;;;;;4165013;28;20052;-85
2021/01/11 09:21:09;;;;;;;2.28;2.17;;;-1.70;93.80;;;;;;4162004;28;20248;-87
2021/01/11 09:23:11;;;;;;;1.65;1.60;;;-1.60;94.00;;;;;;4157155;28;20049;-86
2021/01/11 09:25:13;;;;;;;2.40;1.63;;;-1.60;93.50;;;;;;4140007;28;20049;-86
2021/01/11 09:27:14;;;;;;;3.22;2.08;;;-1.60;93.70;;;;;;4147146;28;20065;-86
2021/01/11 09:29:15;;;;;;;2.05;1.95;;;-1.60;93.80;;;;;;4146725;28;20574;-86
2021/01/11 09:31:17;;;;;;;2.55;2.38;;;-1.60;93.50;;;;;;4178801;28;20528;-85
2021/01/11 09:33:18;;;;;;;2.50;2.30;;;-1.60;93.80;;;;;;4181478;28;20095;-84
2021/01/11 09:35:20;;;;;;;1.95;1.85;;;-1.60;93.80;;;;;;4165250;28;20635;-86
2021/01/11 09:37:21;;;;;;;0.80;0.80;;;-1.60;93.90;;;;;;4151608;28;20500;-86
2021/01/11 09:39:22;;;;;;;1.58;1.50;;;-1.60;93.70;;;;;;4165594;28;20049;-86
2021/01/11 09:41:24;;;;;;;1.55;1.45;;;-1.60;93.80;;;;;;4184210;28;20049;-86
2021/01/11 09:43:25;;;;;;;0.43;0.43;;;-1.50;93.70;;;;;;4167333;28;20158;-86
2021/01/11 09:45:27;;;;;;;5.45;3.05;;;-1.60;93.80;;;;;;4181298;28;20056;-86
2021/01/11 09:47:28;;;;;;;0.73;0.73;;;-1.50;93.80;;;;;;4181570;28;20053;-84
2021/01/11 09:49:30;;;;;;;0.82;0.82;;;-1.50;93.70;;;;;;4181197;28;20098;-83
2021/01/11 09:51:31;;;;;;;1.77;1.50;;;-1.50;93.60;;;;;;4146457;28;20076;-84
2021/01/11 09:53:33;;;;;;;1.25;1.15;;;-1.40;93.60;;;;;;4179566;28;20041;-83
2021/01/11 09:55:35;;;;;;;2.45;2.25;;;-1.50;93.30;;;;;;4180275;28;20049;-83
2021/01/11 09:57:39;;;;;;;1.33;1.17;;;-1.50;93.50;;;;;;4179285;28;20053;-85
2021/01/11 09:59:41;;;;;;;2.10;1.97;;;-1.40;93.40;;;;;;4147769;28;20049;-84
2021/01/11 10:01:43;;;;;;;2.45;2.35;;;-1.50;93.50;;;;;;4166341;28;20540;-84
2021/01/11 10:03:45;;;;;;;1.75;1.63;;;-1.40;93.40;;;;;;4162510;28;20046;-83
2021/01/11 10:05:55;;;;;;;3.42;2.53;;;-1.40;93.40;;;;;;4165034;28;20506;-84
2021/01/11 10:07:56;;;;;;;1.38;1.35;;;-1.40;93.30;;;;;;4146984;28;20052;-83
2021/01/11 10:09:57;;;;;;;2.13;2.03;;;-1.40;93.20;;;;;;4163097;28;20145;-83
2021/01/11 10:11:59;;;;;;;1.13;1.13;;;-1.40;93.50;;;;;;4165562;28;20049;-83
2021/01/11 10:14:01;;;;;;;1.73;1.63;;;-1.40;93.60;;;;;;4164745;28;20124;-84
2021/01/11 10:16:02;;;;;;;1.75;1.20;;;-1.40;93.50;;;;;;4163102;28;20052;-83
2021/01/11 10:18:04;;;;;;;4.15;1.50;;;-1.40;93.50;;;;;;4164790;28;20041;-83
2021/01/11 10:20:09;;;;;;;2.00;1.85;;;-1.30;93.40;;;;;;4147372;28;20052;-84
2021/01/11 10:22:11;;;;;;;2.80;2.60;;;-1.20;93.20;;;;;;4179805;28;20414;-83
2021/01/11 10:24:13;;;;;;;2.50;2.30;;;-1.20;93.50;;;;;;4178569;28;20147;-83
2021/01/11 10:26:21;;;;;;;2.28;1.77;;;-1.20;93.40;;;;;;4167551;28;20049;-83
2021/01/11 10:28:22;;;;;;;1.75;1.65;;;-1.10;93.30;;;;;;4167190;28;20511;-83
2021/01/11 10:30:24;;;;;;;1.45;1.35;;;-1.10;93.30;;;;;;4165003;28;20136;-83
2021/01/11 10:32:25;;;;;;;1.75;1.52;;;-1.10;92.90;;;;;;4178243;28;20111;-83
2021/01/11 10:34:27;;;;;;;2.05;1.95;;;-1.00;92.90;;;;;;4166775;28;20041;-83
2021/01/11 10:36:29;;;;;;;1.15;1.05;;;-1.00;93.10;;;;;;4182546;28;20057;-84
2021/01/11 10:38:30;;;;;;;0.68;0.68;;;-1.00;92.80;;;;;;4183722;28;20049;-83
2021/01/11 10:40:33;;;;;;;2.22;2.13;;;-1.10;92.80;;;;;;4184174;28;20059;-83
2021/01/11 10:42:34;;;;;;;1.88;1.63;;;-1.10;92.70;;;;;;4182892;28;20057;-84
2021/01/11 10:44:35;;;;;;;2.88;2.22;;;-1.10;93.00;;;;;;4183673;28;20135;-83